sensor_id;sensor_type;location;lat;lon;timestamp;temperature;humidity
18753;DHT22;9505;50.882;5.350;2023-12-22T00:01:28;8.50;99.90
18753;DHT22;9505;50.882;5.350;2023-12-22T00:03:54;8.50;99.90
18753;DHT22;9505;50.882;5.350;2023-12-22T00:06:19;8.50;99.90
18753;DHT22;9505;50.882;5.350;2023-12-22T00:08:45;8.60;99.90
18753;DHT22;9505;50.882;5.350;2023-12-22T00:11:11;8.70;99.90
18753;DHT22;9505;50.882;5.350;2023-12-22T00:13:36;8.80;99.90
18753;DHT22;9505;50.882;5.350;2023-12-22T00:16:03;8.90;99.90
18753;DHT22;9505;50.882;5.350;2023-12-22T00:18:28;8.90;99.90
18753;DHT22;9505;50.882;5.350;2023-12-22T00:20:54;8.90;99.90
18753;DHT22;9505;50.882;5.350;2023-12-22T00:23:20;8.90;99.90
18753;DHT22;9505;50.882;5.350;2023-12-22T00:25:45;8.90;99.90
18753;DHT22;9505;50.882;5.350;2023-12-22T00:28:11;8.80;99.90
18753;DHT22;9505;50.882;5.350;2023-12-22T00:30:36;8.90;99.90
18753;DHT22;9505;50.882;5.350;2023-12-22T00:33:02;9.00;99.90
18753;DHT22;9505;50.882;5.350;2023-12-22T00:35:28;9.00;99.90
18753;DHT22;9505;50.882;5.350;2023-12-22T00:37:53;9.10;99.90
18753;DHT22;9505;50.882;5.350;2023-12-22T00:40:19;9.20;99.90
18753;DHT22;9505;50.882;5.350;2023-12-22T00:42:45;9.20;99.90
18753;DHT22;9505;50.882;5.350;2023-12-22T00:45:10;9.20;99.90
18753;DHT22;9505;50.882;5.350;2023-12-22T00:47:37;9.20;99.90
18753;DHT22;9505;50.882;5.350;2023-12-22T00:50:03;9.20;99.90
18753;DHT22;9505;50.882;5.350;2023-12-22T00:52:30;9.30;99.90
18753;DHT22;9505;50.882;5.350;2023-12-22T00:54:56;9.30;99.90
18753;DHT22;9505;50.882;5.350;2023-12-22T00:57:22;9.30;99.90
18753;DHT22;9505;50.882;5.350;2023-12-22T00:59:48;9.30;99.90
18753;DHT22;9505;50.882;5.350;2023-12-22T01:02:16;9.30;99.90
18753;DHT22;9505;50.882;5.350;2023-12-22T01:04:41;9.30;99.90
18753;DHT22;9505;50.882;5.350;2023-12-22T01:07:08;9.30;99.90
18753;DHT22;9505;50.882;5.350;2023-12-22T01:09:34;9.40;99.90
18753;DHT22;9505;50.882;5.350;2023-12-22T01:12:00;9.50;99.90
18753;DHT22;9505;50.882;5.350;2023-12-22T01:14:28;9.60;99.90
18753;DHT22;9505;50.882;5.350;2023-12-22T01:16:54;9.60;99.90
18753;DHT22;9505;50.882;5.350;2023-12-22T01:19:20;9.50;99.90
18753;DHT22;9505;50.882;5.350;2023-12-22T01:21:45;9.50;99.90
18753;DHT22;9505;50.882;5.350;2023-12-22T01:24:11;9.50;99.90
18753;DHT22;9505;50.882;5.350;2023-12-22T01:26:37;9.50;99.90
18753;DHT22;9505;50.882;5.350;2023-12-22T01:29:03;9.50;99.90
18753;DHT22;9505;50.882;5.350;2023-12-22T01:31:29;9.50;99.90
18753;DHT22;9505;50.882;5.350;2023-12-22T01:33:54;9.50;99.90
18753;DHT22;9505;50.882;5.350;2023-12-22T01:36:20;9.50;99.90
18753;DHT22;9505;50.882;5.350;2023-12-22T01:38:46;9.50;99.90
18753;DHT22;9505;50.882;5.350;2023-12-22T01:41:11;9.50;99.90
18753;DHT22;9505;50.882;5.350;2023-12-22T01:43:37;9.50;99.90
18753;DHT22;9505;50.882;5.350;2023-12-22T01:46:03;9.50;99.90
18753;DHT22;9505;50.882;5.350;2023-12-22T01:48:30;9.40;99.90
18753;DHT22;9505;50.882;5.350;2023-12-22T01:50:56;9.40;99.90
18753;DHT22;9505;50.882;5.350;2023-12-22T01:53:24;9.40;99.90
18753;DHT22;9505;50.882;5.350;2023-12-22T01:55:53;9.40;99.90
18753;DHT22;9505;50.882;5.350;2023-12-22T01:58:20;9.30;99.90
18753;DHT22;9505;50.882;5.350;2023-12-22T02:00:47;9.30;99.90
18753;DHT22;9505;50.882;5.350;2023-12-22T02:03:13;9.30;99.90
18753;DHT22;9505;50.882;5.350;2023-12-22T02:05:41;9.30;99.90
18753;DHT22;9505;50.882;5.350;2023-12-22T02:08:06;9.30;99.90
18753;DHT22;9505;50.882;5.350;2023-12-22T02:10:32;9.20;99.90
18753;DHT22;9505;50.882;5.350;2023-12-22T02:12:58;9.20;99.90
18753;DHT22;9505;50.882;5.350;2023-12-22T02:15:24;9.20;99.90
18753;DHT22;9505;50.882;5.350;2023-12-22T02:20:35;9.10;99.90
18753;DHT22;9505;50.882;5.350;2023-12-22T02:23:02;9.00;99.90
18753;DHT22;9505;50.882;5.350;2023-12-22T02:25:27;8.90;99.90
18753;DHT22;9505;50.882;5.350;2023-12-22T02:28:01;8.90;99.90
18753;DHT22;9505;50.882;5.350;2023-12-22T02:33:17;8.90;99.90
18753;DHT22;9505;50.882;5.350;2023-12-22T02:35:44;8.80;99.90
18753;DHT22;9505;50.882;5.350;2023-12-22T02:38:12;8.60;99.90
18753;DHT22;9505;50.882;5.350;2023-12-22T02:40:38;8.50;99.90
18753;DHT22;9505;50.882;5.350;2023-12-22T02:43:05;8.50;99.90
18753;DHT22;9505;50.882;5.350;2023-12-22T02:45:31;8.50;99.90
18753;DHT22;9505;50.882;5.350;2023-12-22T02:47:57;8.60;99.90
18753;DHT22;9505;50.882;5.350;2023-12-22T02:50:23;8.60;99.90
18753;DHT22;9505;50.882;5.350;2023-12-22T02:52:49;8.70;99.90
18753;DHT22;9505;50.882;5.350;2023-12-22T02:55:15;8.70;99.90
18753;DHT22;9505;50.882;5.350;2023-12-22T02:57:40;8.80;99.90
18753;DHT22;9505;50.882;5.350;2023-12-22T03:00:06;8.90;99.90
18753;DHT22;9505;50.882;5.350;2023-12-22T03:02:32;8.90;99.90
18753;DHT22;9505;50.882;5.350;2023-12-22T03:04:58;8.90;99.90
18753;DHT22;9505;50.882;5.350;2023-12-22T03:07:23;9.00;99.90
18753;DHT22;9505;50.882;5.350;2023-12-22T03:09:49;9.00;99.90
18753;DHT22;9505;50.882;5.350;2023-12-22T03:12:15;9.10;99.90
18753;DHT22;9505;50.882;5.350;2023-12-22T03:14:40;9.10;99.90
18753;DHT22;9505;50.882;5.350;2023-12-22T03:17:06;9.10;99.90
18753;DHT22;9505;50.882;5.350;2023-12-22T03:19:33;9.10;99.90
18753;DHT22;9505;50.882;5.350;2023-12-22T03:21:59;9.20;99.90
18753;DHT22;9505;50.882;5.350;2023-12-22T03:24:25;9.10;99.90
18753;DHT22;9505;50.882;5.350;2023-12-22T03:26:52;8.90;99.90
18753;DHT22;9505;50.882;5.350;2023-12-22T03:29:18;8.80;99.90
18753;DHT22;9505;50.882;5.350;2023-12-22T03:31:44;8.80;99.90
18753;DHT22;9505;50.882;5.350;2023-12-22T03:34:10;8.90;99.90
18753;DHT22;9505;50.882;5.350;2023-12-22T03:36:36;9.00;99.90
18753;DHT22;9505;50.882;5.350;2023-12-22T03:39:02;9.00;99.90
18753;DHT22;9505;50.882;5.350;2023-12-22T03:41:29;9.00;99.90
18753;DHT22;9505;50.882;5.350;2023-12-22T03:43:55;9.10;99.90
18753;DHT22;9505;50.882;5.350;2023-12-22T03:46:21;9.10;99.90
18753;DHT22;9505;50.882;5.350;2023-12-22T03:48:47;9.20;99.90
18753;DHT22;9505;50.882;5.350;2023-12-22T03:51:12;9.20;99.90
18753;DHT22;9505;50.882;5.350;2023-12-22T03:53:40;9.30;99.90
18753;DHT22;9505;50.882;5.350;2023-12-22T03:56:07;9.30;99.90
18753;DHT22;9505;50.882;5.350;2023-12-22T03:58:34;9.30;99.90
18753;DHT22;9505;50.882;5.350;2023-12-22T04:01:00;9.30;99.90
18753;DHT22;9505;50.882;5.350;2023-12-22T04:03:25;9.30;99.90
18753;DHT22;9505;50.882;5.350;2023-12-22T04:05:51;9.30;99.90
18753;DHT22;9505;50.882;5.350;2023-12-22T04:08:17;9.30;99.90
18753;DHT22;9505;50.882;5.350;2023-12-22T04:10:43;9.30;99.90
18753;DHT22;9505;50.882;5.350;2023-12-22T04:13:09;9.40;99.90
18753;DHT22;9505;50.882;5.350;2023-12-22T04:15:35;9.30;99.90
18753;DHT22;9505;50.882;5.350;2023-12-22T04:18:01;9.30;99.90
18753;DHT22;9505;50.882;5.350;2023-12-22T04:20:26;9.30;99.90
18753;DHT22;9505;50.882;5.350;2023-12-22T04:22:52;9.30;99.90
18753;DHT22;9505;50.882;5.350;2023-12-22T04:25:18;9.30;99.90
18753;DHT22;9505;50.882;5.350;2023-12-22T04:27:43;9.20;99.90
18753;DHT22;9505;50.882;5.350;2023-12-22T04:30:09;9.20;99.90
18753;DHT22;9505;50.882;5.350;2023-12-22T04:32:35;9.20;99.90
18753;DHT22;9505;50.882;5.350;2023-12-22T04:35:00;9.20;99.90
18753;DHT22;9505;50.882;5.350;2023-12-22T04:37:26;9.20;99.90
18753;DHT22;9505;50.882;5.350;2023-12-22T04:39:52;9.10;99.90
18753;DHT22;9505;50.882;5.350;2023-12-22T04:42:17;9.20;99.90
18753;DHT22;9505;50.882;5.350;2023-12-22T04:44:43;9.20;99.90
18753;DHT22;9505;50.882;5.350;2023-12-22T04:47:09;9.20;99.90
18753;DHT22;9505;50.882;5.350;2023-12-22T04:49:35;9.20;99.90
18753;DHT22;9505;50.882;5.350;2023-12-22T04:52:00;9.10;99.90
18753;DHT22;9505;50.882;5.350;2023-12-22T04:54:26;9.10;99.90
18753;DHT22;9505;50.882;5.350;2023-12-22T04:56:51;9.10;99.90
18753;DHT22;9505;50.882;5.350;2023-12-22T04:59:17;9.10;99.90
18753;DHT22;9505;50.882;5.350;2023-12-22T05:01:43;9.10;99.90
18753;DHT22;9505;50.882;5.350;2023-12-22T05:04:10;9.10;99.90
18753;DHT22;9505;50.882;5.350;2023-12-22T05:06:37;9.10;99.90
18753;DHT22;9505;50.882;5.350;2023-12-22T05:09:02;9.10;99.90
18753;DHT22;9505;50.882;5.350;2023-12-22T05:11:29;9.10;99.90
18753;DHT22;9505;50.882;5.350;2023-12-22T05:13:54;9.00;99.90
18753;DHT22;9505;50.882;5.350;2023-12-22T05:16:20;9.00;99.90
18753;DHT22;9505;50.882;5.350;2023-12-22T05:18:46;9.00;99.90
18753;DHT22;9505;50.882;5.350;2023-12-22T05:21:15;9.00;99.90
18753;DHT22;9505;50.882;5.350;2023-12-22T05:23:40;9.00;99.90
18753;DHT22;9505;50.882;5.350;2023-12-22T05:26:06;8.90;99.90
18753;DHT22;9505;50.882;5.350;2023-12-22T05:28:32;8.90;99.90
18753;DHT22;9505;50.882;5.350;2023-12-22T05:30:58;8.80;99.90
18753;DHT22;9505;50.882;5.350;2023-12-22T05:33:23;8.70;99.90
18753;DHT22;9505;50.882;5.350;2023-12-22T05:35:49;8.60;99.90
18753;DHT22;9505;50.882;5.350;2023-12-22T05:38:14;8.60;99.90
18753;DHT22;9505;50.882;5.350;2023-12-22T05:40:41;8.60;99.90
18753;DHT22;9505;50.882;5.350;2023-12-22T05:43:06;8.60;99.90
18753;DHT22;9505;50.882;5.350;2023-12-22T05:45:32;8.60;99.90
18753;DHT22;9505;50.882;5.350;2023-12-22T05:47:58;8.70;99.90
18753;DHT22;9505;50.882;5.350;2023-12-22T05:50:23;8.70;99.90
18753;DHT22;9505;50.882;5.350;2023-12-22T05:52:49;8.70;99.90
18753;DHT22;9505;50.882;5.350;2023-12-22T05:55:15;8.70;99.90
18753;DHT22;9505;50.882;5.350;2023-12-22T05:57:40;8.80;99.90
18753;DHT22;9505;50.882;5.350;2023-12-22T06:00:07;8.80;99.90
18753;DHT22;9505;50.882;5.350;2023-12-22T06:02:33;8.70;99.90
18753;DHT22;9505;50.882;5.350;2023-12-22T06:04:59;8.70;99.90
18753;DHT22;9505;50.882;5.350;2023-12-22T06:07:25;8.70;99.90
18753;DHT22;9505;50.882;5.350;2023-12-22T06:09:51;8.70;99.90
18753;DHT22;9505;50.882;5.350;2023-12-22T06:12:17;8.60;99.90
18753;DHT22;9505;50.882;5.350;2023-12-22T06:14:43;8.60;99.90
18753;DHT22;9505;50.882;5.350;2023-12-22T06:17:08;8.60;99.90
18753;DHT22;9505;50.882;5.350;2023-12-22T06:19:35;8.60;99.90
18753;DHT22;9505;50.882;5.350;2023-12-22T06:22:01;8.60;99.90
18753;DHT22;9505;50.882;5.350;2023-12-22T06:24:27;8.60;99.90
18753;DHT22;9505;50.882;5.350;2023-12-22T06:26:53;8.50;99.90
18753;DHT22;9505;50.882;5.350;2023-12-22T06:29:19;8.50;99.90
18753;DHT22;9505;50.882;5.350;2023-12-22T06:31:44;8.60;99.90
18753;DHT22;9505;50.882;5.350;2023-12-22T06:34:10;8.60;99.90
18753;DHT22;9505;50.882;5.350;2023-12-22T06:36:36;8.60;99.90
18753;DHT22;9505;50.882;5.350;2023-12-22T06:39:01;8.60;99.90
18753;DHT22;9505;50.882;5.350;2023-12-22T06:41:30;8.60;99.90
18753;DHT22;9505;50.882;5.350;2023-12-22T06:43:57;8.50;99.90
18753;DHT22;9505;50.882;5.350;2023-12-22T06:46:25;8.60;99.90
18753;DHT22;9505;50.882;5.350;2023-12-22T06:48:52;8.60;99.90
18753;DHT22;9505;50.882;5.350;2023-12-22T06:51:26;8.60;99.90
18753;DHT22;9505;50.882;5.350;2023-12-22T06:53:52;8.60;99.90
18753;DHT22;9505;50.882;5.350;2023-12-22T06:56:20;8.50;99.90
18753;DHT22;9505;50.882;5.350;2023-12-22T06:58:50;8.50;99.90
18753;DHT22;9505;50.882;5.350;2023-12-22T07:01:30;8.50;99.90
18753;DHT22;9505;50.882;5.350;2023-12-22T07:03:57;8.50;99.90
18753;DHT22;9505;50.882;5.350;2023-12-22T07:06:24;8.50;99.90
18753;DHT22;9505;50.882;5.350;2023-12-22T07:14:14;8.50;99.90
18753;DHT22;9505;50.882;5.350;2023-12-22T07:16:40;8.50;99.90
18753;DHT22;9505;50.882;5.350;2023-12-22T07:19:07;8.60;99.90
18753;DHT22;9505;50.882;5.350;2023-12-22T07:21:33;8.60;99.90
18753;DHT22;9505;50.882;5.350;2023-12-22T07:23:59;8.70;99.90
18753;DHT22;9505;50.882;5.350;2023-12-22T07:26:24;8.70;99.90
18753;DHT22;9505;50.882;5.350;2023-12-22T07:28:52;8.70;99.90
18753;DHT22;9505;50.882;5.350;2023-12-22T07:31:18;8.70;99.90
18753;DHT22;9505;50.882;5.350;2023-12-22T07:33:43;8.70;99.90
18753;DHT22;9505;50.882;5.350;2023-12-22T07:36:09;8.70;99.90
18753;DHT22;9505;50.882;5.350;2023-12-22T07:38:36;8.70;99.90
18753;DHT22;9505;50.882;5.350;2023-12-22T07:41:02;8.70;99.90
18753;DHT22;9505;50.882;5.350;2023-12-22T07:43:27;8.60;99.90
18753;DHT22;9505;50.882;5.350;2023-12-22T07:45:55;8.60;99.90
18753;DHT22;9505;50.882;5.350;2023-12-22T07:48:20;8.60;99.90
18753;DHT22;9505;50.882;5.350;2023-12-22T07:50:46;8.60;99.90
18753;DHT22;9505;50.882;5.350;2023-12-22T07:53:12;8.60;99.90
18753;DHT22;9505;50.882;5.350;2023-12-22T07:55:38;8.70;99.90
18753;DHT22;9505;50.882;5.350;2023-12-22T07:58:07;8.70;99.90
18753;DHT22;9505;50.882;5.350;2023-12-22T08:00:33;8.80;99.90
18753;DHT22;9505;50.882;5.350;2023-12-22T08:02:59;8.80;99.90
18753;DHT22;9505;50.882;5.350;2023-12-22T08:05:25;8.80;99.90
18753;DHT22;9505;50.882;5.350;2023-12-22T08:07:51;8.80;99.90
18753;DHT22;9505;50.882;5.350;2023-12-22T08:10:17;8.80;99.90
18753;DHT22;9505;50.882;5.350;2023-12-22T08:12:43;8.80;99.90
18753;DHT22;9505;50.882;5.350;2023-12-22T08:15:09;8.80;99.90
18753;DHT22;9505;50.882;5.350;2023-12-22T08:17:45;8.80;99.90
18753;DHT22;9505;50.882;5.350;2023-12-22T08:20:11;8.80;99.90
18753;DHT22;9505;50.882;5.350;2023-12-22T08:22:37;8.80;99.90
18753;DHT22;9505;50.882;5.350;2023-12-22T08:25:02;8.70;99.90
18753;DHT22;9505;50.882;5.350;2023-12-22T08:27:28;8.60;99.90
18753;DHT22;9505;50.882;5.350;2023-12-22T08:29:54;8.60;99.90
18753;DHT22;9505;50.882;5.350;2023-12-22T08:32:19;8.60;99.90
18753;DHT22;9505;50.882;5.350;2023-12-22T08:34:45;8.50;99.90
18753;DHT22;9505;50.882;5.350;2023-12-22T08:37:11;8.50;99.90
18753;DHT22;9505;50.882;5.350;2023-12-22T08:39:36;8.50;99.90
18753;DHT22;9505;50.882;5.350;2023-12-22T08:42:02;8.50;99.90
18753;DHT22;9505;50.882;5.350;2023-12-22T08:44:28;8.50;99.90
18753;DHT22;9505;50.882;5.350;2023-12-22T08:46:53;8.50;99.90
18753;DHT22;9505;50.882;5.350;2023-12-22T08:49:19;8.60;99.90
18753;DHT22;9505;50.882;5.350;2023-12-22T08:51:44;8.60;99.90
18753;DHT22;9505;50.882;5.350;2023-12-22T08:54:10;8.60;99.90
18753;DHT22;9505;50.882;5.350;2023-12-22T08:56:36;8.60;99.90
18753;DHT22;9505;50.882;5.350;2023-12-22T08:59:01;8.60;99.90
18753;DHT22;9505;50.882;5.350;2023-12-22T09:01:27;8.60;99.90
18753;DHT22;9505;50.882;5.350;2023-12-22T09:03:53;8.70;99.90
18753;DHT22;9505;50.882;5.350;2023-12-22T09:06:20;8.70;99.90
18753;DHT22;9505;50.882;5.350;2023-12-22T09:08:46;8.70;99.90
18753;DHT22;9505;50.882;5.350;2023-12-22T09:11:13;8.70;99.90
18753;DHT22;9505;50.882;5.350;2023-12-22T09:13:40;8.70;99.90
18753;DHT22;9505;50.882;5.350;2023-12-22T09:16:05;8.70;99.90
18753;DHT22;9505;50.882;5.350;2023-12-22T09:18:35;8.70;99.90
18753;DHT22;9505;50.882;5.350;2023-12-22T09:21:01;8.70;99.90
18753;DHT22;9505;50.882;5.350;2023-12-22T09:23:26;8.70;99.90
18753;DHT22;9505;50.882;5.350;2023-12-22T09:25:52;8.70;99.90
18753;DHT22;9505;50.882;5.350;2023-12-22T09:28:18;8.70;99.90
18753;DHT22;9505;50.882;5.350;2023-12-22T09:30:44;8.80;99.90
18753;DHT22;9505;50.882;5.350;2023-12-22T09:33:10;8.80;99.90
18753;DHT22;9505;50.882;5.350;2023-12-22T09:35:36;8.80;99.90
18753;DHT22;9505;50.882;5.350;2023-12-22T09:38:02;8.90;99.90
18753;DHT22;9505;50.882;5.350;2023-12-22T09:40:28;8.90;99.90
18753;DHT22;9505;50.882;5.350;2023-12-22T09:42:55;9.00;99.90
18753;DHT22;9505;50.882;5.350;2023-12-22T09:45:21;9.10;99.90
18753;DHT22;9505;50.882;5.350;2023-12-22T09:47:48;9.10;99.90
18753;DHT22;9505;50.882;5.350;2023-12-22T09:50:15;9.30;99.90
18753;DHT22;9505;50.882;5.350;2023-12-22T09:52:44;9.30;99.90
18753;DHT22;9505;50.882;5.350;2023-12-22T09:55:12;9.30;99.90
18753;DHT22;9505;50.882;5.350;2023-12-22T09:57:38;9.40;99.90
18753;DHT22;9505;50.882;5.350;2023-12-22T10:00:08;9.40;99.90
18753;DHT22;9505;50.882;5.350;2023-12-22T10:02:34;9.40;99.90
18753;DHT22;9505;50.882;5.350;2023-12-22T10:05:01;9.40;99.90
18753;DHT22;9505;50.882;5.350;2023-12-22T10:07:28;9.50;99.90
18753;DHT22;9505;50.882;5.350;2023-12-22T10:09:54;9.50;99.90
18753;DHT22;9505;50.882;5.350;2023-12-22T10:12:22;9.50;99.90
18753;DHT22;9505;50.882;5.350;2023-12-22T10:14:49;9.60;99.90
18753;DHT22;9505;50.882;5.350;2023-12-22T10:17:15;9.60;99.90
18753;DHT22;9505;50.882;5.350;2023-12-22T10:19:42;9.60;99.90
18753;DHT22;9505;50.882;5.350;2023-12-22T10:22:09;9.50;99.90
18753;DHT22;9505;50.882;5.350;2023-12-22T10:24:42;9.50;99.90
18753;DHT22;9505;50.882;5.350;2023-12-22T10:27:08;9.50;99.90
18753;DHT22;9505;50.882;5.350;2023-12-22T10:29:34;9.50;99.90
18753;DHT22;9505;50.882;5.350;2023-12-22T10:32:01;9.50;99.90
18753;DHT22;9505;50.882;5.350;2023-12-22T10:34:28;9.50;99.90
18753;DHT22;9505;50.882;5.350;2023-12-22T10:36:54;9.60;99.90
18753;DHT22;9505;50.882;5.350;2023-12-22T10:39:19;9.60;99.90
18753;DHT22;9505;50.882;5.350;2023-12-22T10:41:46;9.60;99.90
18753;DHT22;9505;50.882;5.350;2023-12-22T10:44:13;9.70;99.90
18753;DHT22;9505;50.882;5.350;2023-12-22T10:46:39;9.70;99.90
18753;DHT22;9505;50.882;5.350;2023-12-22T10:49:07;9.70;99.90
18753;DHT22;9505;50.882;5.350;2023-12-22T10:51:33;9.70;99.90
18753;DHT22;9505;50.882;5.350;2023-12-22T10:53:59;9.70;99.90
18753;DHT22;9505;50.882;5.350;2023-12-22T10:56:25;9.70;99.90
18753;DHT22;9505;50.882;5.350;2023-12-22T10:58:51;9.70;99.90
18753;DHT22;9505;50.882;5.350;2023-12-22T11:01:21;9.60;99.90
18753;DHT22;9505;50.882;5.350;2023-12-22T11:03:50;9.60;99.90
18753;DHT22;9505;50.882;5.350;2023-12-22T11:06:16;9.60;99.90
18753;DHT22;9505;50.882;5.350;2023-12-22T11:08:43;9.60;99.90
18753;DHT22;9505;50.882;5.350;2023-12-22T11:11:47;9.50;99.90
18753;DHT22;9505;50.882;5.350;2023-12-22T11:14:14;9.60;99.90
18753;DHT22;9505;50.882;5.350;2023-12-22T11:16:41;9.60;99.90
18753;DHT22;9505;50.882;5.350;2023-12-22T11:19:14;9.70;99.90
18753;DHT22;9505;50.882;5.350;2023-12-22T11:21:39;9.80;99.90
18753;DHT22;9505;50.882;5.350;2023-12-22T11:24:06;9.80;99.90
18753;DHT22;9505;50.882;5.350;2023-12-22T11:26:32;9.80;99.90
18753;DHT22;9505;50.882;5.350;2023-12-22T11:28:59;9.80;99.90
18753;DHT22;9505;50.882;5.350;2023-12-22T11:31:27;9.70;99.90
18753;DHT22;9505;50.882;5.350;2023-12-22T11:33:56;9.70;99.90
18753;DHT22;9505;50.882;5.350;2023-12-22T11:36:23;9.70;99.90
18753;DHT22;9505;50.882;5.350;2023-12-22T11:38:49;9.80;99.90
18753;DHT22;9505;50.882;5.350;2023-12-22T11:41:27;9.80;99.90
18753;DHT22;9505;50.882;5.350;2023-12-22T11:43:54;9.80;99.90
18753;DHT22;9505;50.882;5.350;2023-12-22T11:46:21;9.80;99.90
18753;DHT22;9505;50.882;5.350;2023-12-22T11:48:50;9.90;99.90
18753;DHT22;9505;50.882;5.350;2023-12-22T11:51:17;9.90;99.90
18753;DHT22;9505;50.882;5.350;2023-12-22T11:53:43;10.00;99.90
18753;DHT22;9505;50.882;5.350;2023-12-22T11:56:10;10.00;99.90
18753;DHT22;9505;50.882;5.350;2023-12-22T11:58:44;10.00;99.90
18753;DHT22;9505;50.882;5.350;2023-12-22T12:01:18;10.00;99.90
18753;DHT22;9505;50.882;5.350;2023-12-22T12:09:00;10.00;99.90
18753;DHT22;9505;50.882;5.350;2023-12-22T12:14:14;10.10;99.90
18753;DHT22;9505;50.882;5.350;2023-12-22T12:16:42;10.00;99.90
18753;DHT22;9505;50.882;5.350;2023-12-22T12:19:11;10.00;99.90
18753;DHT22;9505;50.882;5.350;2023-12-22T12:21:36;10.00;99.90
18753;DHT22;9505;50.882;5.350;2023-12-22T12:24:03;9.90;99.90
18753;DHT22;9505;50.882;5.350;2023-12-22T12:26:32;9.80;99.90
18753;DHT22;9505;50.882;5.350;2023-12-22T12:28:59;9.70;99.90
18753;DHT22;9505;50.882;5.350;2023-12-22T12:31:36;9.60;99.90
18753;DHT22;9505;50.882;5.350;2023-12-22T12:34:05;9.60;99.90
18753;DHT22;9505;50.882;5.350;2023-12-22T12:36:32;9.60;99.90
18753;DHT22;9505;50.882;5.350;2023-12-22T12:39:07;9.60;99.90
18753;DHT22;9505;50.882;5.350;2023-12-22T12:41:38;9.70;99.90
18753;DHT22;9505;50.882;5.350;2023-12-22T12:44:06;9.70;99.90
18753;DHT22;9505;50.882;5.350;2023-12-22T12:46:35;9.80;99.90
18753;DHT22;9505;50.882;5.350;2023-12-22T12:49:08;9.80;99.90
18753;DHT22;9505;50.882;5.350;2023-12-22T12:51:42;9.90;99.90
18753;DHT22;9505;50.882;5.350;2023-12-22T12:54:09;9.90;99.90
18753;DHT22;9505;50.882;5.350;2023-12-22T12:56:42;9.90;99.90
18753;DHT22;9505;50.882;5.350;2023-12-22T12:59:12;10.00;99.90
18753;DHT22;9505;50.882;5.350;2023-12-22T13:01:42;10.00;99.90
18753;DHT22;9505;50.882;5.350;2023-12-22T13:04:08;10.00;99.90
18753;DHT22;9505;50.882;5.350;2023-12-22T13:06:34;10.00;99.90
18753;DHT22;9505;50.882;5.350;2023-12-22T13:08:59;10.10;99.90
18753;DHT22;9505;50.882;5.350;2023-12-22T13:11:35;10.10;99.90
18753;DHT22;9505;50.882;5.350;2023-12-22T13:14:02;10.10;99.90
18753;DHT22;9505;50.882;5.350;2023-12-22T13:16:28;10.10;99.90
18753;DHT22;9505;50.882;5.350;2023-12-22T13:18:56;10.10;99.90
18753;DHT22;9505;50.882;5.350;2023-12-22T13:21:22;10.20;99.90
18753;DHT22;9505;50.882;5.350;2023-12-22T13:23:48;10.20;99.90
18753;DHT22;9505;50.882;5.350;2023-12-22T13:26:32;10.30;99.90
18753;DHT22;9505;50.882;5.350;2023-12-22T13:28:58;10.30;99.90
18753;DHT22;9505;50.882;5.350;2023-12-22T13:31:26;10.40;99.90
18753;DHT22;9505;50.882;5.350;2023-12-22T13:33:52;10.40;99.90
18753;DHT22;9505;50.882;5.350;2023-12-22T13:36:18;10.40;99.90
18753;DHT22;9505;50.882;5.350;2023-12-22T13:38:47;10.40;99.90
18753;DHT22;9505;50.882;5.350;2023-12-22T13:41:17;10.50;99.90
18753;DHT22;9505;50.882;5.350;2023-12-22T13:43:42;10.50;99.90
18753;DHT22;9505;50.882;5.350;2023-12-22T13:46:11;10.40;99.90
18753;DHT22;9505;50.882;5.350;2023-12-22T13:48:37;10.30;99.90
18753;DHT22;9505;50.882;5.350;2023-12-22T13:51:03;10.20;99.90
18753;DHT22;9505;50.882;5.350;2023-12-22T13:53:29;10.20;99.90
18753;DHT22;9505;50.882;5.350;2023-12-22T13:56:01;10.20;99.90
18753;DHT22;9505;50.882;5.350;2023-12-22T13:58:27;10.20;99.90
18753;DHT22;9505;50.882;5.350;2023-12-22T14:00:53;10.30;99.90
18753;DHT22;9505;50.882;5.350;2023-12-22T14:03:19;10.30;99.90
18753;DHT22;9505;50.882;5.350;2023-12-22T14:05:48;10.30;99.90
18753;DHT22;9505;50.882;5.350;2023-12-22T14:08:15;10.30;99.90
18753;DHT22;9505;50.882;5.350;2023-12-22T14:10:50;10.30;99.90
18753;DHT22;9505;50.882;5.350;2023-12-22T14:13:15;10.20;99.90
18753;DHT22;9505;50.882;5.350;2023-12-22T14:15:42;10.30;99.90
18753;DHT22;9505;50.882;5.350;2023-12-22T14:18:09;10.30;99.90
18753;DHT22;9505;50.882;5.350;2023-12-22T14:20:34;10.30;99.90
18753;DHT22;9505;50.882;5.350;2023-12-22T14:23:00;10.30;99.90
18753;DHT22;9505;50.882;5.350;2023-12-22T14:25:25;10.30;99.90
18753;DHT22;9505;50.882;5.350;2023-12-22T14:27:52;10.20;99.90
18753;DHT22;9505;50.882;5.350;2023-12-22T14:30:23;10.20;99.90
18753;DHT22;9505;50.882;5.350;2023-12-22T14:32:49;10.20;99.90
18753;DHT22;9505;50.882;5.350;2023-12-22T14:35:14;10.20;99.90
18753;DHT22;9505;50.882;5.350;2023-12-22T14:37:40;10.10;99.90
18753;DHT22;9505;50.882;5.350;2023-12-22T14:40:06;10.20;99.90
18753;DHT22;9505;50.882;5.350;2023-12-22T14:42:32;10.20;99.90
18753;DHT22;9505;50.882;5.350;2023-12-22T14:44:58;10.20;99.90
18753;DHT22;9505;50.882;5.350;2023-12-22T14:47:23;10.20;99.90
18753;DHT22;9505;50.882;5.350;2023-12-22T14:49:49;10.20;99.90
18753;DHT22;9505;50.882;5.350;2023-12-22T14:52:14;10.30;99.90
18753;DHT22;9505;50.882;5.350;2023-12-22T14:54:40;10.30;99.90
18753;DHT22;9505;50.882;5.350;2023-12-22T14:57:06;10.20;99.90
18753;DHT22;9505;50.882;5.350;2023-12-22T14:59:32;10.20;99.90
18753;DHT22;9505;50.882;5.350;2023-12-22T15:01:57;10.20;99.90
18753;DHT22;9505;50.882;5.350;2023-12-22T15:04:23;10.10;99.90
18753;DHT22;9505;50.882;5.350;2023-12-22T15:06:49;10.10;99.90
18753;DHT22;9505;50.882;5.350;2023-12-22T15:09:15;10.20;99.90
18753;DHT22;9505;50.882;5.350;2023-12-22T15:11:46;10.20;99.90
18753;DHT22;9505;50.882;5.350;2023-12-22T15:14:12;10.20;99.90
18753;DHT22;9505;50.882;5.350;2023-12-22T15:16:43;10.10;99.90
18753;DHT22;9505;50.882;5.350;2023-12-22T15:19:13;10.00;99.90
18753;DHT22;9505;50.882;5.350;2023-12-22T15:21:39;10.00;99.90
18753;DHT22;9505;50.882;5.350;2023-12-22T15:24:07;9.80;99.90
18753;DHT22;9505;50.882;5.350;2023-12-22T15:26:33;9.70;99.90
18753;DHT22;9505;50.882;5.350;2023-12-22T15:29:05;9.70;99.90
18753;DHT22;9505;50.882;5.350;2023-12-22T15:31:31;9.70;99.90
18753;DHT22;9505;50.882;5.350;2023-12-22T15:33:57;9.70;99.90
18753;DHT22;9505;50.882;5.350;2023-12-22T15:36:23;9.70;99.90
18753;DHT22;9505;50.882;5.350;2023-12-22T15:38:49;9.80;99.90
18753;DHT22;9505;50.882;5.350;2023-12-22T15:41:14;10.00;99.90
18753;DHT22;9505;50.882;5.350;2023-12-22T15:43:41;10.00;99.90
18753;DHT22;9505;50.882;5.350;2023-12-22T15:46:08;10.00;99.90
18753;DHT22;9505;50.882;5.350;2023-12-22T15:48:34;10.10;99.90
18753;DHT22;9505;50.882;5.350;2023-12-22T15:51:07;10.20;99.90
18753;DHT22;9505;50.882;5.350;2023-12-22T15:53:37;10.20;99.90
18753;DHT22;9505;50.882;5.350;2023-12-22T15:56:04;10.30;99.90
18753;DHT22;9505;50.882;5.350;2023-12-22T15:58:30;10.30;99.90
18753;DHT22;9505;50.882;5.350;2023-12-22T16:00:56;10.40;99.90
18753;DHT22;9505;50.882;5.350;2023-12-22T16:03:22;10.40;99.90
18753;DHT22;9505;50.882;5.350;2023-12-22T16:05:48;10.50;99.90
18753;DHT22;9505;50.882;5.350;2023-12-22T16:08:13;10.60;99.90
18753;DHT22;9505;50.882;5.350;2023-12-22T16:10:39;10.60;99.90
18753;DHT22;9505;50.882;5.350;2023-12-22T16:13:05;10.60;99.90